sensor_id;sensor_type;location;lat;lon;timestamp;P1;durP1;ratioP1;P2;durP2;ratioP2
14738;SDS011;7461;52.440;13.540;2023-04-01T00:02:22;4.10;;;3.50;;
14738;SDS011;7461;52.440;13.540;2023-04-01T00:04:52;5.32;;;3.20;;
14738;SDS011;7461;52.440;13.540;2023-04-01T00:07:19;3.47;;;3.28;;
14738;SDS011;7461;52.440;13.540;2023-04-01T00:09:46;3.25;;;3.05;;
14738;SDS011;7461;52.440;13.540;2023-04-01T00:12:13;5.57;;;3.22;;
14738;SDS011;7461;52.440;13.540;2023-04-01T00:14:40;4.25;;;3.55;;
14738;SDS011;7461;52.440;13.540;2023-04-01T00:17:07;4.03;;;3.20;;
14738;SDS011;7461;52.440;13.540;2023-04-01T00:19:33;3.53;;;3.28;;
14738;SDS011;7461;52.440;13.540;2023-04-01T00:22:02;3.65;;;3.13;;
14738;SDS011;7461;52.440;13.540;2023-04-01T00:24:29;3.65;;;3.45;;
14738;SDS011;7461;52.440;13.540;2023-04-01T00:26:56;3.05;;;2.85;;
14738;SDS011;7461;52.440;13.540;2023-04-01T00:29:23;5.68;;;3.85;;
14738;SDS011;7461;52.440;13.540;2023-04-01T00:31:57;3.10;;;2.90;;
14738;SDS011;7461;52.440;13.540;2023-04-01T00:34:24;4.20;;;3.90;;
14738;SDS011;7461;52.440;13.540;2023-04-01T00:36:51;3.53;;;2.90;;
14738;SDS011;7461;52.440;13.540;2023-04-01T00:39:20;3.95;;;3.65;;
14738;SDS011;7461;52.440;13.540;2023-04-01T00:41:47;4.28;;;4.07;;
14738;SDS011;7461;52.440;13.540;2023-04-01T00:44:16;4.65;;;4.22;;
14738;SDS011;7461;52.440;13.540;2023-04-01T00:46:45;3.70;;;3.50;;
14738;SDS011;7461;52.440;13.540;2023-04-01T00:49:12;4.25;;;3.95;;
14738;SDS011;7461;52.440;13.540;2023-04-01T00:51:40;3.83;;;3.58;;
14738;SDS011;7461;52.440;13.540;2023-04-01T00:54:08;4.85;;;4.45;;
14738;SDS011;7461;52.440;13.540;2023-04-01T00:56:38;4.03;;;3.83;;
14738;SDS011;7461;52.440;13.540;2023-04-01T00:59:10;4.63;;;4.15;;
14738;SDS011;7461;52.440;13.540;2023-04-01T01:01:39;5.07;;;4.63;;
14738;SDS011;7461;52.440;13.540;2023-04-01T01:04:06;3.92;;;3.58;;
14738;SDS011;7461;52.440;13.540;2023-04-01T01:06:47;3.85;;;3.55;;
14738;SDS011;7461;52.440;13.540;2023-04-01T01:09:30;4.25;;;3.95;;
14738;SDS011;7461;52.440;13.540;2023-04-01T01:12:07;3.72;;;3.42;;
14738;SDS011;7461;52.440;13.540;2023-04-01T01:14:43;4.05;;;3.67;;
14738;SDS011;7461;52.440;13.540;2023-04-01T01:17:19;4.40;;;4.10;;
14738;SDS011;7461;52.440;13.540;2023-04-01T01:19:57;6.00;;;3.55;;
14738;SDS011;7461;52.440;13.540;2023-04-01T01:22:52;4.65;;;4.20;;
14738;SDS011;7461;52.440;13.540;2023-04-01T01:25:32;5.35;;;4.90;;
14738;SDS011;7461;52.440;13.540;2023-04-01T01:28:15;4.97;;;4.30;;
14738;SDS011;7461;52.440;13.540;2023-04-01T01:30:56;4.32;;;4.13;;
14738;SDS011;7461;52.440;13.540;2023-04-01T01:33:35;6.28;;;5.68;;
14738;SDS011;7461;52.440;13.540;2023-04-01T01:36:12;8.52;;;6.60;;
14738;SDS011;7461;52.440;13.540;2023-04-01T01:38:40;5.72;;;5.25;;
14738;SDS011;7461;52.440;13.540;2023-04-01T01:41:07;5.55;;;5.03;;
14738;SDS011;7461;52.440;13.540;2023-04-01T01:43:38;4.68;;;4.10;;
14738;SDS011;7461;52.440;13.540;2023-04-01T01:46:09;7.60;;;6.10;;
14738;SDS011;7461;52.440;13.540;2023-04-01T01:48:38;6.03;;;5.60;;
14738;SDS011;7461;52.440;13.540;2023-04-01T01:51:08;5.53;;;5.22;;
14738;SDS011;7461;52.440;13.540;2023-04-01T01:53:36;6.32;;;5.85;;
14738;SDS011;7461;52.440;13.540;2023-04-01T01:56:04;6.20;;;5.70;;
14738;SDS011;7461;52.440;13.540;2023-04-01T01:58:32;9.00;;;6.15;;
14738;SDS011;7461;52.440;13.540;2023-04-01T02:01:06;6.00;;;5.47;;
14738;SDS011;7461;52.440;13.540;2023-04-01T02:03:37;8.75;;;4.65;;
14738;SDS011;7461;52.440;13.540;2023-04-01T02:06:06;5.93;;;5.38;;
14738;SDS011;7461;52.440;13.540;2023-04-01T02:08:37;6.10;;;5.63;;
14738;SDS011;7461;52.440;13.540;2023-04-01T02:11:09;6.28;;;5.47;;
14738;SDS011;7461;52.440;13.540;2023-04-01T02:13:39;5.40;;;5.00;;
14738;SDS011;7461;52.440;13.540;2023-04-01T02:16:12;8.43;;;5.32;;
14738;SDS011;7461;52.440;13.540;2023-04-01T02:18:41;5.78;;;5.28;;
14738;SDS011;7461;52.440;13.540;2023-04-01T02:21:11;5.97;;;5.53;;
14738;SDS011;7461;52.440;13.540;2023-04-01T02:23:41;4.95;;;4.65;;
14738;SDS011;7461;52.440;13.540;2023-04-01T02:26:08;4.80;;;4.50;;
14738;SDS011;7461;52.440;13.540;2023-04-01T02:28:38;6.75;;;5.18;;
14738;SDS011;7461;52.440;13.540;2023-04-01T02:31:07;5.72;;;5.28;;
14738;SDS011;7461;52.440;13.540;2023-04-01T02:33:35;5.57;;;5.10;;
14738;SDS011;7461;52.440;13.540;2023-04-01T02:36:04;6.18;;;5.53;;
14738;SDS011;7461;52.440;13.540;2023-04-01T02:38:31;5.18;;;4.78;;
14738;SDS011;7461;52.440;13.540;2023-04-01T02:41:03;6.63;;;6.07;;
14738;SDS011;7461;52.440;13.540;2023-04-01T02:43:31;5.10;;;4.80;;
14738;SDS011;7461;52.440;13.540;2023-04-01T02:45:58;4.78;;;4.35;;
14738;SDS011;7461;52.440;13.540;2023-04-01T02:48:26;6.85;;;6.00;;
14738;SDS011;7461;52.440;13.540;2023-04-01T02:50:53;6.97;;;6.47;;
14738;SDS011;7461;52.440;13.540;2023-04-01T02:53:20;7.75;;;5.22;;
14738;SDS011;7461;52.440;13.540;2023-04-01T02:55:48;5.82;;;5.38;;
14738;SDS011;7461;52.440;13.540;2023-04-01T02:58:18;5.68;;;5.25;;
14738;SDS011;7461;52.440;13.540;2023-04-01T03:00:45;6.00;;;5.38;;
14738;SDS011;7461;52.440;13.540;2023-04-01T03:03:12;7.57;;;6.28;;
14738;SDS011;7461;52.440;13.540;2023-04-01T03:05:39;7.15;;;6.65;;
14738;SDS011;7461;52.440;13.540;2023-04-01T03:08:06;6.63;;;6.13;;
14738;SDS011;7461;52.440;13.540;2023-04-01T03:10:33;6.07;;;5.60;;
14738;SDS011;7461;52.440;13.540;2023-04-01T03:13:00;5.70;;;5.18;;
14738;SDS011;7461;52.440;13.540;2023-04-01T03:15:29;5.85;;;5.32;;
14738;SDS011;7461;52.440;13.540;2023-04-01T03:17:56;6.22;;;5.47;;
14738;SDS011;7461;52.440;13.540;2023-04-01T03:20:23;6.80;;;6.30;;
14738;SDS011;7461;52.440;13.540;2023-04-01T03:22:50;4.93;;;4.63;;
14738;SDS011;7461;52.440;13.540;2023-04-01T03:25:17;11.15;;;5.60;;
14738;SDS011;7461;52.440;13.540;2023-04-01T03:27:44;6.32;;;5.72;;
14738;SDS011;7461;52.440;13.540;2023-04-01T03:30:11;7.95;;;5.50;;
14738;SDS011;7461;52.440;13.540;2023-04-01T03:32:40;5.03;;;4.63;;
14738;SDS011;7461;52.440;13.540;2023-04-01T03:35:07;6.45;;;5.93;;
14738;SDS011;7461;52.440;13.540;2023-04-01T03:37:35;5.53;;;5.13;;
14738;SDS011;7461;52.440;13.540;2023-04-01T03:40:03;5.65;;;5.15;;
14738;SDS011;7461;52.440;13.540;2023-04-01T03:42:30;5.35;;;4.82;;
14738;SDS011;7461;52.440;13.540;2023-04-01T03:44:57;5.97;;;5.57;;
14738;SDS011;7461;52.440;13.540;2023-04-01T03:47:24;8.73;;;6.18;;
14738;SDS011;7461;52.440;13.540;2023-04-01T03:49:53;7.15;;;6.38;;
14738;SDS011;7461;52.440;13.540;2023-04-01T03:52:20;7.30;;;5.28;;
14738;SDS011;7461;52.440;13.540;2023-04-01T03:54:47;7.65;;;7.05;;
14738;SDS011;7461;52.440;13.540;2023-04-01T03:57:14;6.93;;;6.25;;
14738;SDS011;7461;52.440;13.540;2023-04-01T03:59:41;6.72;;;5.60;;
14738;SDS011;7461;52.440;13.540;2023-04-01T04:02:07;5.43;;;5.13;;
14738;SDS011;7461;52.440;13.540;2023-04-01T04:04:34;5.97;;;5.07;;
14738;SDS011;7461;52.440;13.540;2023-04-01T04:07:03;6.72;;;6.13;;
14738;SDS011;7461;52.440;13.540;2023-04-01T04:09:30;7.00;;;5.50;;
14738;SDS011;7461;52.440;13.540;2023-04-01T04:11:57;5.78;;;5.35;;
14738;SDS011;7461;52.440;13.540;2023-04-01T04:14:24;8.13;;;6.68;;
14738;SDS011;7461;52.440;13.540;2023-04-01T04:16:51;6.25;;;5.55;;
14738;SDS011;7461;52.440;13.540;2023-04-01T04:19:18;6.70;;;6.10;;
14738;SDS011;7461;52.440;13.540;2023-04-01T04:21:45;6.57;;;6.07;;
14738;SDS011;7461;52.440;13.540;2023-04-01T04:24:14;6.63;;;6.13;;
14738;SDS011;7461;52.440;13.540;2023-04-01T04:26:40;5.80;;;5.47;;
14738;SDS011;7461;52.440;13.540;2023-04-01T04:29:07;6.60;;;6.00;;
14738;SDS011;7461;52.440;13.540;2023-04-01T04:31:34;6.55;;;5.95;;
14738;SDS011;7461;52.440;13.540;2023-04-01T04:34:01;6.20;;;5.70;;
14738;SDS011;7461;52.440;13.540;2023-04-01T04:36:31;5.60;;;5.13;;
14738;SDS011;7461;52.440;13.540;2023-04-01T04:38:58;5.90;;;5.45;;
14738;SDS011;7461;52.440;13.540;2023-04-01T04:41:28;5.78;;;5.18;;
14738;SDS011;7461;52.440;13.540;2023-04-01T04:43:55;6.80;;;5.68;;
14738;SDS011;7461;52.440;13.540;2023-04-01T04:46:23;6.22;;;5.75;;
14738;SDS011;7461;52.440;13.540;2023-04-01T04:48:51;6.20;;;5.60;;
14738;SDS011;7461;52.440;13.540;2023-04-01T04:51:18;7.35;;;6.85;;
14738;SDS011;7461;52.440;13.540;2023-04-01T04:53:46;7.38;;;5.93;;
14738;SDS011;7461;52.440;13.540;2023-04-01T04:56:16;6.75;;;6.15;;
14738;SDS011;7461;52.440;13.540;2023-04-01T04:58:45;8.15;;;7.38;;
14738;SDS011;7461;52.440;13.540;2023-04-01T05:01:13;7.50;;;6.90;;
14738;SDS011;7461;52.440;13.540;2023-04-01T05:03:42;9.77;;;7.30;;
14738;SDS011;7461;52.440;13.540;2023-04-01T05:06:11;7.30;;;6.57;;
14738;SDS011;7461;52.440;13.540;2023-04-01T05:08:38;8.20;;;7.53;;
14738;SDS011;7461;52.440;13.540;2023-04-01T05:11:06;8.05;;;7.25;;
14738;SDS011;7461;52.440;13.540;2023-04-01T05:13:36;9.55;;;6.45;;
14738;SDS011;7461;52.440;13.540;2023-04-01T05:16:07;6.90;;;5.90;;
14738;SDS011;7461;52.440;13.540;2023-04-01T05:18:34;8.38;;;7.55;;
14738;SDS011;7461;52.440;13.540;2023-04-01T05:21:01;7.28;;;6.65;;
14738;SDS011;7461;52.440;13.540;2023-04-01T05:23:30;9.18;;;6.53;;
14738;SDS011;7461;52.440;13.540;2023-04-01T05:25:57;7.47;;;6.95;;
14738;SDS011;7461;52.440;13.540;2023-04-01T05:28:25;8.05;;;6.82;;
14738;SDS011;7461;52.440;13.540;2023-04-01T05:30:51;9.40;;;7.07;;
14738;SDS011;7461;52.440;13.540;2023-04-01T05:33:20;7.63;;;6.95;;
14738;SDS011;7461;52.440;13.540;2023-04-01T05:35:47;6.97;;;6.40;;
14738;SDS011;7461;52.440;13.540;2023-04-01T05:38:14;8.32;;;7.38;;
14738;SDS011;7461;52.440;13.540;2023-04-01T05:40:40;9.68;;;7.85;;
14738;SDS011;7461;52.440;13.540;2023-04-01T05:43:07;8.27;;;7.57;;
14738;SDS011;7461;52.440;13.540;2023-04-01T05:45:34;8.80;;;7.72;;
14738;SDS011;7461;52.440;13.540;2023-04-01T05:48:01;7.88;;;6.68;;
14738;SDS011;7461;52.440;13.540;2023-04-01T05:50:30;8.13;;;7.47;;
14738;SDS011;7461;52.440;13.540;2023-04-01T05:52:57;10.93;;;7.72;;
14738;SDS011;7461;52.440;13.540;2023-04-01T05:55:24;7.45;;;6.38;;
14738;SDS011;7461;52.440;13.540;2023-04-01T05:57:51;9.25;;;6.32;;
14738;SDS011;7461;52.440;13.540;2023-04-01T06:00:18;7.15;;;6.13;;
14738;SDS011;7461;52.440;13.540;2023-04-01T06:02:46;8.10;;;7.45;;
14738;SDS011;7461;52.440;13.540;2023-04-01T06:05:14;8.18;;;6.80;;
14738;SDS011;7461;52.440;13.540;2023-04-01T06:07:45;6.75;;;6.25;;
14738;SDS011;7461;52.440;13.540;2023-04-01T06:10:14;9.23;;;7.32;;
14738;SDS011;7461;52.440;13.540;2023-04-01T06:12:47;7.78;;;7.00;;
14738;SDS011;7461;52.440;13.540;2023-04-01T06:15:23;6.57;;;5.90;;
14738;SDS011;7461;52.440;13.540;2023-04-01T06:18:00;7.25;;;6.75;;
14738;SDS011;7461;52.440;13.540;2023-04-01T06:20:42;8.23;;;6.75;;
14738;SDS011;7461;52.440;13.540;2023-04-01T06:23:28;10.23;;;8.13;;
14738;SDS011;7461;52.440;13.540;2023-04-01T06:26:18;9.55;;;8.75;;
14738;SDS011;7461;52.440;13.540;2023-04-01T06:29:03;7.10;;;6.40;;
14738;SDS011;7461;52.440;13.540;2023-04-01T06:34:44;8.48;;;7.75;;
14738;SDS011;7461;52.440;13.540;2023-04-01T06:37:38;8.20;;;7.50;;
14738;SDS011;7461;52.440;13.540;2023-04-01T06:40:30;8.20;;;7.40;;
14738;SDS011;7461;52.440;13.540;2023-04-01T06:43:22;8.15;;;7.65;;
14738;SDS011;7461;52.440;13.540;2023-04-01T06:46:00;8.63;;;6.13;;
14738;SDS011;7461;52.440;13.540;2023-04-01T06:48:38;7.70;;;6.85;;
14738;SDS011;7461;52.440;13.540;2023-04-01T06:51:18;11.75;;;6.95;;
14738;SDS011;7461;52.440;13.540;2023-04-01T06:53:54;12.55;;;7.68;;
14738;SDS011;7461;52.440;13.540;2023-04-01T06:56:28;7.53;;;6.93;;
14738;SDS011;7461;52.440;13.540;2023-04-01T06:58:57;11.20;;;7.43;;
14738;SDS011;7461;52.440;13.540;2023-04-01T07:01:29;11.15;;;6.72;;
14738;SDS011;7461;52.440;13.540;2023-04-01T07:04:00;10.85;;;7.63;;
14738;SDS011;7461;52.440;13.540;2023-04-01T07:06:32;12.07;;;7.28;;
14738;SDS011;7461;52.440;13.540;2023-04-01T07:09:05;7.65;;;6.88;;
14738;SDS011;7461;52.440;13.540;2023-04-01T07:11:38;7.82;;;6.93;;
14738;SDS011;7461;52.440;13.540;2023-04-01T07:14:07;9.75;;;8.30;;
14738;SDS011;7461;52.440;13.540;2023-04-01T07:16:43;8.55;;;7.70;;
14738;SDS011;7461;52.440;13.540;2023-04-01T07:19:16;8.32;;;6.68;;
14738;SDS011;7461;52.440;13.540;2023-04-01T07:21:48;12.18;;;7.43;;
14738;SDS011;7461;52.440;13.540;2023-04-01T07:24:21;9.75;;;8.38;;
14738;SDS011;7461;52.440;13.540;2023-04-01T07:26:54;10.77;;;7.50;;
14738;SDS011;7461;52.440;13.540;2023-04-01T07:29:22;9.13;;;7.57;;
14738;SDS011;7461;52.440;13.540;2023-04-01T07:32:08;7.25;;;6.75;;
14738;SDS011;7461;52.440;13.540;2023-04-01T07:34:53;8.48;;;7.85;;
14738;SDS011;7461;52.440;13.540;2023-04-01T07:37:29;11.68;;;9.85;;
14738;SDS011;7461;52.440;13.540;2023-04-01T07:40:04;8.65;;;7.75;;
14738;SDS011;7461;52.440;13.540;2023-04-01T07:42:47;7.70;;;7.03;;
14738;SDS011;7461;52.440;13.540;2023-04-01T07:45:28;13.55;;;8.57;;
14738;SDS011;7461;52.440;13.540;2023-04-01T07:48:06;9.93;;;7.47;;
14738;SDS011;7461;52.440;13.540;2023-04-01T07:50:40;9.23;;;8.40;;
14738;SDS011;7461;52.440;13.540;2023-04-01T07:53:18;13.68;;;8.13;;
14738;SDS011;7461;52.440;13.540;2023-04-01T07:55:53;8.18;;;7.43;;
14738;SDS011;7461;52.440;13.540;2023-04-01T07:58:28;7.90;;;7.10;;
14738;SDS011;7461;52.440;13.540;2023-04-01T08:00:59;8.70;;;7.53;;
14738;SDS011;7461;52.440;13.540;2023-04-01T08:03:35;7.28;;;6.38;;
14738;SDS011;7461;52.440;13.540;2023-04-01T08:06:12;11.88;;;8.18;;
14738;SDS011;7461;52.440;13.540;2023-04-01T08:08:48;9.18;;;8.25;;
14738;SDS011;7461;52.440;13.540;2023-04-01T08:11:27;8.85;;;8.05;;
14738;SDS011;7461;52.440;13.540;2023-04-01T08:14:10;9.95;;;9.15;;
14738;SDS011;7461;52.440;13.540;2023-04-01T08:16:45;11.38;;;10.27;;
14738;SDS011;7461;52.440;13.540;2023-04-01T08:19:20;12.75;;;8.25;;
14738;SDS011;7461;52.440;13.540;2023-04-01T08:21:56;12.25;;;8.48;;
14738;SDS011;7461;52.440;13.540;2023-04-01T08:24:32;8.32;;;7.72;;
14738;SDS011;7461;52.440;13.540;2023-04-01T08:27:03;6.90;;;6.25;;
14738;SDS011;7461;52.440;13.540;2023-04-01T08:29:40;12.60;;;9.55;;
14738;SDS011;7461;52.440;13.540;2023-04-01T08:32:12;8.55;;;7.65;;
14738;SDS011;7461;52.440;13.540;2023-04-01T08:34:45;9.23;;;8.45;;
14738;SDS011;7461;52.440;13.540;2023-04-01T08:37:19;9.63;;;8.20;;
14738;SDS011;7461;52.440;13.540;2023-04-01T08:39:50;10.30;;;9.30;;
14738;SDS011;7461;52.440;13.540;2023-04-01T08:45:26;13.38;;;11.35;;
14738;SDS011;7461;52.440;13.540;2023-04-01T08:48:16;8.02;;;7.35;;
14738;SDS011;7461;52.440;13.540;2023-04-01T08:51:07;8.45;;;7.65;;
14738;SDS011;7461;52.440;13.540;2023-04-01T08:53:58;8.90;;;8.07;;
14738;SDS011;7461;52.440;13.540;2023-04-01T08:57:01;11.73;;;10.82;;
14738;SDS011;7461;52.440;13.540;2023-04-01T08:59:44;11.27;;;10.05;;
14738;SDS011;7461;52.440;13.540;2023-04-01T09:02:28;12.13;;;11.02;;
14738;SDS011;7461;52.440;13.540;2023-04-01T09:05:22;15.88;;;14.57;;
14738;SDS011;7461;52.440;13.540;2023-04-01T09:08:05;18.00;;;16.45;;
14738;SDS011;7461;52.440;13.540;2023-04-01T09:10:46;18.85;;;16.95;;
14738;SDS011;7461;52.440;13.540;2023-04-01T09:13:43;17.58;;;15.75;;
14738;SDS011;7461;52.440;13.540;2023-04-01T09:19:30;16.92;;;15.32;;
14738;SDS011;7461;52.440;13.540;2023-04-01T09:25:05;20.13;;;18.40;;
14738;SDS011;7461;52.440;13.540;2023-04-01T09:27:54;17.25;;;15.77;;
14738;SDS011;7461;52.440;13.540;2023-04-01T09:39:34;15.10;;;13.70;;
14738;SDS011;7461;52.440;13.540;2023-04-01T09:42:07;15.82;;;14.35;;
14738;SDS011;7461;52.440;13.540;2023-04-01T09:44:43;18.15;;;16.65;;
14738;SDS011;7461;52.440;13.540;2023-04-01T09:47:19;15.98;;;14.60;;
14738;SDS011;7461;52.440;13.540;2023-04-01T09:49:55;17.50;;;16.02;;
14738;SDS011;7461;52.440;13.540;2023-04-01T09:52:42;18.10;;;16.63;;
14738;SDS011;7461;52.440;13.540;2023-04-01T09:55:19;18.80;;;17.20;;
14738;SDS011;7461;52.440;13.540;2023-04-01T09:58:16;16.65;;;15.45;;
14738;SDS011;7461;52.440;13.540;2023-04-01T10:01:03;17.40;;;16.10;;
14738;SDS011;7461;52.440;13.540;2023-04-01T10:10:17;19.45;;;18.05;;
14738;SDS011;7461;52.440;13.540;2023-04-01T10:16:12;19.38;;;17.88;;
14738;SDS011;7461;52.440;13.540;2023-04-01T10:19:14;20.33;;;18.73;;
14738;SDS011;7461;52.440;13.540;2023-04-01T10:25:11;20.33;;;18.67;;
14738;SDS011;7461;52.440;13.540;2023-04-01T10:31:00;18.13;;;16.83;;
14738;SDS011;7461;52.440;13.540;2023-04-01T10:33:57;16.80;;;15.60;;
14738;SDS011;7461;52.440;13.540;2023-04-01T10:36:52;16.58;;;15.32;;
14738;SDS011;7461;52.440;13.540;2023-04-01T10:39:27;17.65;;;16.50;;
14738;SDS011;7461;52.440;13.540;2023-04-01T10:45:39;16.65;;;15.57;;
14738;SDS011;7461;52.440;13.540;2023-04-01T10:48:39;16.85;;;15.75;;
14738;SDS011;7461;52.440;13.540;2023-04-01T10:51:38;16.92;;;15.75;;
14738;SDS011;7461;52.440;13.540;2023-04-01T10:54:46;18.42;;;17.02;;
14738;SDS011;7461;52.440;13.540;2023-04-01T10:57:28;18.60;;;17.30;;
14738;SDS011;7461;52.440;13.540;2023-04-01T11:03:35;18.75;;;17.45;;
14738;SDS011;7461;52.440;13.540;2023-04-01T11:12:49;15.48;;;14.27;;
14738;SDS011;7461;52.440;13.540;2023-04-01T11:15:59;15.30;;;14.32;;
14738;SDS011;7461;52.440;13.540;2023-04-01T11:19:01;14.38;;;13.48;;
14738;SDS011;7461;52.440;13.540;2023-04-01T11:22:09;10.50;;;9.80;;
14738;SDS011;7461;52.440;13.540;2023-04-01T11:25:07;10.57;;;9.98;;
14738;SDS011;7461;52.440;13.540;2023-04-01T11:28:01;10.27;;;9.57;;
14738;SDS011;7461;52.440;13.540;2023-04-01T11:30:57;8.65;;;8.10;;
14738;SDS011;7461;52.440;13.540;2023-04-01T11:33:38;10.50;;;9.85;;
14738;SDS011;7461;52.440;13.540;2023-04-01T11:36:32;11.13;;;10.43;;
14738;SDS011;7461;52.440;13.540;2023-04-01T11:39:11;8.60;;;8.10;;
14738;SDS011;7461;52.440;13.540;2023-04-01T11:41:50;8.63;;;7.88;;
14738;SDS011;7461;52.440;13.540;2023-04-01T11:44:23;8.77;;;8.27;;
14738;SDS011;7461;52.440;13.540;2023-04-01T11:47:07;7.70;;;7.25;;
14738;SDS011;7461;52.440;13.540;2023-04-01T11:49:49;9.48;;;8.80;;
14738;SDS011;7461;52.440;13.540;2023-04-01T11:52:28;7.43;;;6.95;;
14738;SDS011;7461;52.440;13.540;2023-04-01T11:55:19;8.75;;;8.18;;
14738;SDS011;7461;52.440;13.540;2023-04-01T11:58:06;8.88;;;8.27;;
14738;SDS011;7461;52.440;13.540;2023-04-01T12:04:15;7.72;;;7.10;;
14738;SDS011;7461;52.440;13.540;2023-04-01T12:07:13;7.47;;;6.93;;
14738;SDS011;7461;52.440;13.540;2023-04-01T12:09:51;7.75;;;7.22;;
14738;SDS011;7461;52.440;13.540;2023-04-01T12:12:27;7.57;;;7.07;;
14738;SDS011;7461;52.440;13.540;2023-04-01T12:15:11;7.22;;;6.82;;
14738;SDS011;7461;52.440;13.540;2023-04-01T12:17:46;7.50;;;7.03;;
14738;SDS011;7461;52.440;13.540;2023-04-01T12:20:22;7.00;;;6.57;;
14738;SDS011;7461;52.440;13.540;2023-04-01T12:23:09;7.65;;;7.13;;
14738;SDS011;7461;52.440;13.540;2023-04-01T12:25:59;7.82;;;7.30;;
14738;SDS011;7461;52.440;13.540;2023-04-01T12:28:37;6.82;;;6.38;;
14738;SDS011;7461;52.440;13.540;2023-04-01T12:31:16;7.93;;;7.32;;
14738;SDS011;7461;52.440;13.540;2023-04-01T12:34:00;7.13;;;6.72;;
14738;SDS011;7461;52.440;13.540;2023-04-01T12:36:42;7.68;;;7.28;;
14738;SDS011;7461;52.440;13.540;2023-04-01T12:39:22;9.02;;;8.38;;
14738;SDS011;7461;52.440;13.540;2023-04-01T12:42:02;8.50;;;7.82;;
14738;SDS011;7461;52.440;13.540;2023-04-01T12:44:42;7.85;;;7.40;;
14738;SDS011;7461;52.440;13.540;2023-04-01T12:47:29;7.57;;;7.15;;
14738;SDS011;7461;52.440;13.540;2023-04-01T12:50:20;7.20;;;6.70;;
14738;SDS011;7461;52.440;13.540;2023-04-01T12:55:59;7.47;;;7.00;;
14738;SDS011;7461;52.440;13.540;2023-04-01T12:58:38;7.10;;;6.70;;
14738;SDS011;7461;52.440;13.540;2023-04-01T13:01:26;5.85;;;5.55;;
14738;SDS011;7461;52.440;13.540;2023-04-01T13:07:00;8.27;;;7.78;;
14738;SDS011;7461;52.440;13.540;2023-04-01T13:09:43;8.55;;;8.05;;
14738;SDS011;7461;52.440;13.540;2023-04-01T13:12:23;10.02;;;9.32;;
14738;SDS011;7461;52.440;13.540;2023-04-01T13:18:05;8.95;;;8.43;;
14738;SDS011;7461;52.440;13.540;2023-04-01T13:20:43;8.73;;;8.02;;
14738;SDS011;7461;52.440;13.540;2023-04-01T13:23:19;8.13;;;7.63;;
14738;SDS011;7461;52.440;13.540;2023-04-01T13:26:13;9.70;;;9.10;;
14738;SDS011;7461;52.440;13.540;2023-04-01T13:28:49;9.60;;;8.85;;
14738;SDS011;7461;52.440;13.540;2023-04-01T13:31:27;10.07;;;9.48;;
14738;SDS011;7461;52.440;13.540;2023-04-01T13:34:08;10.45;;;9.50;;
14738;SDS011;7461;52.440;13.540;2023-04-01T13:36:49;8.40;;;7.93;;
14738;SDS011;7461;52.440;13.540;2023-04-01T13:39:30;7.43;;;6.85;;
14738;SDS011;7461;52.440;13.540;2023-04-01T13:42:14;7.88;;;7.38;;
14738;SDS011;7461;52.440;13.540;2023-04-01T13:44:48;7.45;;;6.95;;
14738;SDS011;7461;52.440;13.540;2023-04-01T13:47:26;9.65;;;8.88;;
14738;SDS011;7461;52.440;13.540;2023-04-01T13:50:17;9.10;;;7.90;;
14738;SDS011;7461;52.440;13.540;2023-04-01T14:01:49;7.68;;;7.10;;
14738;SDS011;7461;52.440;13.540;2023-04-01T14:04:41;8.25;;;7.65;;
14738;SDS011;7461;52.440;13.540;2023-04-01T14:07:29;12.02;;;10.98;;
14738;SDS011;7461;52.440;13.540;2023-04-01T14:10:12;13.13;;;12.25;;
14738;SDS011;7461;52.440;13.540;2023-04-01T14:12:47;15.07;;;14.10;;
14738;SDS011;7461;52.440;13.540;2023-04-01T14:15:28;16.00;;;14.90;;
14738;SDS011;7461;52.440;13.540;2023-04-01T14:26:59;14.60;;;13.52;;
14738;SDS011;7461;52.440;13.540;2023-04-01T14:29:37;14.45;;;13.55;;
14738;SDS011;7461;52.440;13.540;2023-04-01T14:32:14;14.43;;;13.43;;
14738;SDS011;7461;52.440;13.540;2023-04-01T14:34:53;14.32;;;13.43;;
14738;SDS011;7461;52.440;13.540;2023-04-01T14:37:39;15.10;;;14.00;;
14738;SDS011;7461;52.440;13.540;2023-04-01T14:40:26;13.93;;;13.13;;
14738;SDS011;7461;52.440;13.540;2023-04-01T14:43:04;13.38;;;12.38;;
14738;SDS011;7461;52.440;13.540;2023-04-01T14:45:46;12.38;;;11.57;;
14738;SDS011;7461;52.440;13.540;2023-04-01T14:48:51;12.60;;;11.77;;
14738;SDS011;7461;52.440;13.540;2023-04-01T14:51:23;10.70;;;10.05;;
14738;SDS011;7461;52.440;13.540;2023-04-01T14:54:02;13.10;;;12.20;;
14738;SDS011;7461;52.440;13.540;2023-04-01T14:56:34;13.10;;;12.20;;
14738;SDS011;7461;52.440;13.540;2023-04-01T14:59:04;11.63;;;10.80;;
14738;SDS011;7461;52.440;13.540;2023-04-01T15:01:42;11.02;;;10.30;;
14738;SDS011;7461;52.440;13.540;2023-04-01T15:04:24;10.82;;;10.13;;
14738;SDS011;7461;52.440;13.540;2023-04-01T15:07:29;11.27;;;10.50;;
14738;SDS011;7461;52.440;13.540;2023-04-01T15:10:39;12.23;;;11.52;;
14738;SDS011;7461;52.440;13.540;2023-04-01T15:13:37;11.93;;;11.27;;
14738;SDS011;7461;52.440;13.540;2023-04-01T15:16:18;13.20;;;12.35;;
14738;SDS011;7461;52.440;13.540;2023-04-01T15:18:53;10.90;;;10.27;;
14738;SDS011;7461;52.440;13.540;2023-04-01T15:21:32;10.85;;;10.13;;
14738;SDS011;7461;52.440;13.540;2023-04-01T15:24:15;10.48;;;9.88;;
14738;SDS011;7461;52.440;13.540;2023-04-01T15:26:57;10.43;;;9.82;;
14738;SDS011;7461;52.440;13.540;2023-04-01T15:29:50;10.73;;;9.93;;
14738;SDS011;7461;52.440;13.540;2023-04-01T15:32:39;10.57;;;9.98;;
14738;SDS011;7461;52.440;13.540;2023-04-01T15:35:17;8.73;;;8.02;;
14738;SDS011;7461;52.440;13.540;2023-04-01T15:37:52;9.27;;;8.60;;
14738;SDS011;7461;52.440;13.540;2023-04-01T15:40:22;8.55;;;8.02;;
14738;SDS011;7461;52.440;13.540;2023-04-01T15:43:02;8.50;;;7.90;;
14738;SDS011;7461;52.440;13.540;2023-04-01T15:45:49;9.55;;;8.80;;
14738;SDS011;7461;52.440;13.540;2023-04-01T15:48:27;10.02;;;9.23;;
14738;SDS011;7461;52.440;13.540;2023-04-01T15:51:10;9.68;;;9.13;;
14738;SDS011;7461;52.440;13.540;2023-04-01T15:56:49;11.57;;;10.75;;
14738;SDS011;7461;52.440;13.540;2023-04-01T15:59:41;10.68;;;9.95;;
14738;SDS011;7461;52.440;13.540;2023-04-01T16:02:31;9.82;;;9.15;;
14738;SDS011;7461;52.440;13.540;2023-04-01T16:05:04;11.18;;;10.40;;
14738;SDS011;7461;52.440;13.540;2023-04-01T16:07:51;9.82;;;9.23;;
14738;SDS011;7461;52.440;13.540;2023-04-01T16:10:35;10.18;;;9.32;;
14738;SDS011;7461;52.440;13.540;2023-04-01T16:13:16;8.52;;;7.80;;
14738;SDS011;7461;52.440;13.540;2023-04-01T16:16:00;7.68;;;7.03;;
14738;SDS011;7461;52.440;13.540;2023-04-01T16:18:39;7.70;;;7.10;;
14738;SDS011;7461;52.440;13.540;2023-04-01T16:21:27;7.13;;;6.72;;
14738;SDS011;7461;52.440;13.540;2023-04-01T16:24:04;6.65;;;6.15;;
14738;SDS011;7461;52.440;13.540;2023-04-01T16:26:43;7.88;;;7.07;;
14738;SDS011;7461;52.440;13.540;2023-04-01T16:29:19;9.85;;;9.25;;
14738;SDS011;7461;52.440;13.540;2023-04-01T16:31:58;8.95;;;8.45;;
14738;SDS011;7461;52.440;13.540;2023-04-01T16:35:04;11.40;;;10.65;;
14738;SDS011;7461;52.440;13.540;2023-04-01T16:40:44;12.50;;;11.48;;
14738;SDS011;7461;52.440;13.540;2023-04-01T16:43:38;12.80;;;11.90;;
14738;SDS011;7461;52.440;13.540;2023-04-01T16:46:20;13.15;;;12.23;;
14738;SDS011;7461;52.440;13.540;2023-04-01T16:49:03;14.82;;;13.93;;
14738;SDS011;7461;52.440;13.540;2023-04-01T16:51:44;12.55;;;11.85;;
14738;SDS011;7461;52.440;13.540;2023-04-01T16:54:17;12.82;;;11.93;;
14738;SDS011;7461;52.440;13.540;2023-04-01T16:56:56;12.73;;;11.95;;
14738;SDS011;7461;52.440;13.540;2023-04-01T16:59:33;14.18;;;13.27;;
14738;SDS011;7461;52.440;13.540;2023-04-01T17:02:07;12.30;;;11.40;;
14738;SDS011;7461;52.440;13.540;2023-04-01T17:04:45;12.55;;;11.85;;